sensor_id;sensor_type;location;lat;lon;timestamp;temperature;humidity
15131;DHT22;7666;50.920;4.628;2023-07-22T00:00:53;14.80;99.90
15131;DHT22;7666;50.920;4.628;2023-07-22T00:03:38;14.70;99.90
15131;DHT22;7666;50.920;4.628;2023-07-22T00:06:25;14.60;99.90
15131;DHT22;7666;50.920;4.628;2023-07-22T00:09:11;14.60;99.90
15131;DHT22;7666;50.920;4.628;2023-07-22T00:11:57;14.60;99.90
15131;DHT22;7666;50.920;4.628;2023-07-22T00:14:43;14.50;99.90
15131;DHT22;7666;50.920;4.628;2023-07-22T00:17:29;14.50;99.90
15131;DHT22;7666;50.920;4.628;2023-07-22T00:20:16;14.60;99.90
15131;DHT22;7666;50.920;4.628;2023-07-22T00:23:02;14.60;99.90
15131;DHT22;7666;50.920;4.628;2023-07-22T00:25:48;14.70;99.90
15131;DHT22;7666;50.920;4.628;2023-07-22T00:28:34;14.70;99.90
15131;DHT22;7666;50.920;4.628;2023-07-22T00:31:20;14.80;99.90
15131;DHT22;7666;50.920;4.628;2023-07-22T00:34:07;14.80;99.90
15131;DHT22;7666;50.920;4.628;2023-07-22T00:36:53;14.90;99.90
15131;DHT22;7666;50.920;4.628;2023-07-22T00:39:40;14.90;99.90
15131;DHT22;7666;50.920;4.628;2023-07-22T00:42:26;15.00;99.90
15131;DHT22;7666;50.920;4.628;2023-07-22T00:45:12;15.00;99.90
15131;DHT22;7666;50.920;4.628;2023-07-22T00:47:58;15.00;99.90
15131;DHT22;7666;50.920;4.628;2023-07-22T00:50:44;15.00;99.90
15131;DHT22;7666;50.920;4.628;2023-07-22T00:53:30;15.00;99.90
15131;DHT22;7666;50.920;4.628;2023-07-22T00:56:16;15.00;99.90
15131;DHT22;7666;50.920;4.628;2023-07-22T00:59:02;15.00;99.90
15131;DHT22;7666;50.920;4.628;2023-07-22T01:01:48;15.00;99.90
15131;DHT22;7666;50.920;4.628;2023-07-22T01:04:34;15.00;99.90
15131;DHT22;7666;50.920;4.628;2023-07-22T01:07:21;15.10;99.90
15131;DHT22;7666;50.920;4.628;2023-07-22T01:10:07;15.00;99.90
15131;DHT22;7666;50.920;4.628;2023-07-22T01:12:55;15.10;99.90
15131;DHT22;7666;50.920;4.628;2023-07-22T01:15:41;15.10;99.90
15131;DHT22;7666;50.920;4.628;2023-07-22T01:18:27;15.10;99.90
15131;DHT22;7666;50.920;4.628;2023-07-22T01:21:14;15.10;99.90
15131;DHT22;7666;50.920;4.628;2023-07-22T01:24:01;15.10;99.90
15131;DHT22;7666;50.920;4.628;2023-07-22T01:26:47;15.10;99.90
15131;DHT22;7666;50.920;4.628;2023-07-22T01:29:34;15.10;99.90
15131;DHT22;7666;50.920;4.628;2023-07-22T01:32:20;15.10;99.90
15131;DHT22;7666;50.920;4.628;2023-07-22T01:35:07;15.10;99.90
15131;DHT22;7666;50.920;4.628;2023-07-22T01:37:53;15.10;99.90
15131;DHT22;7666;50.920;4.628;2023-07-22T01:40:39;15.00;99.90
15131;DHT22;7666;50.920;4.628;2023-07-22T01:43:25;15.10;99.90
15131;DHT22;7666;50.920;4.628;2023-07-22T01:46:11;15.00;99.90
15131;DHT22;7666;50.920;4.628;2023-07-22T01:48:57;15.00;99.90
15131;DHT22;7666;50.920;4.628;2023-07-22T01:51:44;15.10;99.90
15131;DHT22;7666;50.920;4.628;2023-07-22T01:54:31;15.00;99.90
15131;DHT22;7666;50.920;4.628;2023-07-22T01:57:17;15.00;99.90
15131;DHT22;7666;50.920;4.628;2023-07-22T02:00:03;15.00;99.90
15131;DHT22;7666;50.920;4.628;2023-07-22T02:02:50;15.00;99.90
15131;DHT22;7666;50.920;4.628;2023-07-22T02:05:36;14.90;99.90
15131;DHT22;7666;50.920;4.628;2023-07-22T02:08:22;14.90;99.90
15131;DHT22;7666;50.920;4.628;2023-07-22T02:11:10;14.90;99.90
15131;DHT22;7666;50.920;4.628;2023-07-22T02:13:56;14.80;99.90
15131;DHT22;7666;50.920;4.628;2023-07-22T02:16:42;14.80;99.90
15131;DHT22;7666;50.920;4.628;2023-07-22T02:19:28;14.70;99.90
15131;DHT22;7666;50.920;4.628;2023-07-22T02:22:14;14.70;99.90
15131;DHT22;7666;50.920;4.628;2023-07-22T02:25:00;14.60;99.90
15131;DHT22;7666;50.920;4.628;2023-07-22T02:27:46;14.60;99.90
15131;DHT22;7666;50.920;4.628;2023-07-22T02:30:36;14.50;99.90
15131;DHT22;7666;50.920;4.628;2023-07-22T02:33:22;14.50;99.90
15131;DHT22;7666;50.920;4.628;2023-07-22T02:36:08;14.40;99.90
15131;DHT22;7666;50.920;4.628;2023-07-22T02:38:54;14.40;99.90
15131;DHT22;7666;50.920;4.628;2023-07-22T02:41:40;14.40;99.90
15131;DHT22;7666;50.920;4.628;2023-07-22T02:44:26;14.30;99.90
15131;DHT22;7666;50.920;4.628;2023-07-22T02:47:12;14.30;99.90
15131;DHT22;7666;50.920;4.628;2023-07-22T02:50:00;14.30;99.90
15131;DHT22;7666;50.920;4.628;2023-07-22T02:52:46;14.20;99.90
15131;DHT22;7666;50.920;4.628;2023-07-22T02:55:32;14.20;99.90
15131;DHT22;7666;50.920;4.628;2023-07-22T02:58:17;14.20;99.90
15131;DHT22;7666;50.920;4.628;2023-07-22T03:01:04;14.10;99.90
15131;DHT22;7666;50.920;4.628;2023-07-22T03:03:51;14.10;99.90
15131;DHT22;7666;50.920;4.628;2023-07-22T03:06:37;14.10;99.90
15131;DHT22;7666;50.920;4.628;2023-07-22T03:09:23;14.00;99.90
15131;DHT22;7666;50.920;4.628;2023-07-22T03:12:09;14.00;99.90
15131;DHT22;7666;50.920;4.628;2023-07-22T03:14:55;14.00;99.90
15131;DHT22;7666;50.920;4.628;2023-07-22T03:17:40;14.00;99.90
15131;DHT22;7666;50.920;4.628;2023-07-22T03:20:29;14.00;99.90
15131;DHT22;7666;50.920;4.628;2023-07-22T03:23:15;14.00;99.90
15131;DHT22;7666;50.920;4.628;2023-07-22T03:26:01;13.90;99.90
15131;DHT22;7666;50.920;4.628;2023-07-22T03:28:47;13.90;99.90
15131;DHT22;7666;50.920;4.628;2023-07-22T03:31:33;14.00;99.90
15131;DHT22;7666;50.920;4.628;2023-07-22T03:34:19;13.90;99.90
15131;DHT22;7666;50.920;4.628;2023-07-22T03:37:05;14.00;99.90
15131;DHT22;7666;50.920;4.628;2023-07-22T03:39:51;13.90;99.90
15131;DHT22;7666;50.920;4.628;2023-07-22T03:42:38;13.90;99.90
15131;DHT22;7666;50.920;4.628;2023-07-22T03:45:24;13.90;99.90
15131;DHT22;7666;50.920;4.628;2023-07-22T03:48:10;13.90;99.90
15131;DHT22;7666;50.920;4.628;2023-07-22T03:50:56;13.80;99.90
15131;DHT22;7666;50.920;4.628;2023-07-22T03:53:42;13.80;99.90
15131;DHT22;7666;50.920;4.628;2023-07-22T03:56:28;13.80;99.90
15131;DHT22;7666;50.920;4.628;2023-07-22T03:59:14;13.70;99.90
15131;DHT22;7666;50.920;4.628;2023-07-22T04:01:59;13.70;99.90
15131;DHT22;7666;50.920;4.628;2023-07-22T04:04:45;13.70;99.90
15131;DHT22;7666;50.920;4.628;2023-07-22T04:07:31;13.70;99.90
15131;DHT22;7666;50.920;4.628;2023-07-22T04:10:17;13.70;99.90
15131;DHT22;7666;50.920;4.628;2023-07-22T04:13:03;13.70;99.90
15131;DHT22;7666;50.920;4.628;2023-07-22T04:15:50;13.70;99.90
15131;DHT22;7666;50.920;4.628;2023-07-22T04:18:36;13.60;99.90
15131;DHT22;7666;50.920;4.628;2023-07-22T04:21:22;13.70;99.90
15131;DHT22;7666;50.920;4.628;2023-07-22T04:24:08;13.70;99.90
15131;DHT22;7666;50.920;4.628;2023-07-22T04:26:56;13.70;99.90
15131;DHT22;7666;50.920;4.628;2023-07-22T04:29:41;13.70;99.90
15131;DHT22;7666;50.920;4.628;2023-07-22T04:32:27;13.70;99.90
15131;DHT22;7666;50.920;4.628;2023-07-22T04:35:13;13.80;99.90
15131;DHT22;7666;50.920;4.628;2023-07-22T04:37:59;13.80;99.90
15131;DHT22;7666;50.920;4.628;2023-07-22T04:40:45;13.90;99.90
15131;DHT22;7666;50.920;4.628;2023-07-22T04:43:33;14.00;99.90
15131;DHT22;7666;50.920;4.628;2023-07-22T04:46:19;14.00;99.90
15131;DHT22;7666;50.920;4.628;2023-07-22T04:49:05;14.10;99.90
15131;DHT22;7666;50.920;4.628;2023-07-22T04:51:51;14.20;99.90
15131;DHT22;7666;50.920;4.628;2023-07-22T04:54:36;14.30;99.90
15131;DHT22;7666;50.920;4.628;2023-07-22T04:57:22;14.30;99.90
15131;DHT22;7666;50.920;4.628;2023-07-22T05:00:09;14.40;99.90
15131;DHT22;7666;50.920;4.628;2023-07-22T05:02:55;14.40;99.90
15131;DHT22;7666;50.920;4.628;2023-07-22T05:05:42;14.50;99.90
15131;DHT22;7666;50.920;4.628;2023-07-22T05:08:28;14.50;99.90
15131;DHT22;7666;50.920;4.628;2023-07-22T05:11:14;14.50;99.90
15131;DHT22;7666;50.920;4.628;2023-07-22T05:14:00;14.60;99.90
15131;DHT22;7666;50.920;4.628;2023-07-22T05:16:46;14.60;99.90
15131;DHT22;7666;50.920;4.628;2023-07-22T05:19:32;14.70;99.90
15131;DHT22;7666;50.920;4.628;2023-07-22T05:22:18;14.70;99.90
15131;DHT22;7666;50.920;4.628;2023-07-22T05:25:05;14.70;99.90
15131;DHT22;7666;50.920;4.628;2023-07-22T05:27:51;14.70;99.90
15131;DHT22;7666;50.920;4.628;2023-07-22T05:30:37;14.80;99.90
15131;DHT22;7666;50.920;4.628;2023-07-22T05:33:23;14.90;99.90
15131;DHT22;7666;50.920;4.628;2023-07-22T05:36:09;15.00;99.90
15131;DHT22;7666;50.920;4.628;2023-07-22T05:38:55;15.20;99.90
15131;DHT22;7666;50.920;4.628;2023-07-22T05:41:41;15.40;99.90
15131;DHT22;7666;50.920;4.628;2023-07-22T05:44:27;15.50;99.90
15131;DHT22;7666;50.920;4.628;2023-07-22T05:47:13;15.60;99.90
15131;DHT22;7666;50.920;4.628;2023-07-22T05:49:59;15.50;99.90
15131;DHT22;7666;50.920;4.628;2023-07-22T05:52:45;15.60;99.90
15131;DHT22;7666;50.920;4.628;2023-07-22T05:55:31;15.70;99.90
15131;DHT22;7666;50.920;4.628;2023-07-22T05:58:17;16.50;99.90
15131;DHT22;7666;50.920;4.628;2023-07-22T06:01:04;17.40;99.90
15131;DHT22;7666;50.920;4.628;2023-07-22T06:03:50;18.60;99.90
15131;DHT22;7666;50.920;4.628;2023-07-22T06:06:36;19.70;99.90
15131;DHT22;7666;50.920;4.628;2023-07-22T06:09:22;20.10;99.90
15131;DHT22;7666;50.920;4.628;2023-07-22T06:12:08;20.10;99.90
15131;DHT22;7666;50.920;4.628;2023-07-22T06:14:54;19.70;99.90
15131;DHT22;7666;50.920;4.628;2023-07-22T06:17:40;20.00;99.90
15131;DHT22;7666;50.920;4.628;2023-07-22T06:20:26;20.60;99.90
15131;DHT22;7666;50.920;4.628;2023-07-22T06:23:13;21.10;99.90
15131;DHT22;7666;50.920;4.628;2023-07-22T06:25:58;21.60;99.90
15131;DHT22;7666;50.920;4.628;2023-07-22T06:28:44;21.30;99.90
15131;DHT22;7666;50.920;4.628;2023-07-22T06:31:30;20.90;99.90
15131;DHT22;7666;50.920;4.628;2023-07-22T06:34:16;20.50;99.90
15131;DHT22;7666;50.920;4.628;2023-07-22T06:37:02;20.20;99.90
15131;DHT22;7666;50.920;4.628;2023-07-22T06:39:48;19.80;99.90
15131;DHT22;7666;50.920;4.628;2023-07-22T06:42:34;19.40;99.90
15131;DHT22;7666;50.920;4.628;2023-07-22T06:45:20;19.00;99.90
15131;DHT22;7666;50.920;4.628;2023-07-22T06:48:06;18.80;99.90
15131;DHT22;7666;50.920;4.628;2023-07-22T06:50:52;18.70;99.90
15131;DHT22;7666;50.920;4.628;2023-07-22T06:53:38;18.60;99.90
15131;DHT22;7666;50.920;4.628;2023-07-22T06:56:24;18.40;99.90
15131;DHT22;7666;50.920;4.628;2023-07-22T06:59:11;18.20;99.90
15131;DHT22;7666;50.920;4.628;2023-07-22T07:01:58;18.10;99.90
15131;DHT22;7666;50.920;4.628;2023-07-22T07:04:44;18.10;99.90
15131;DHT22;7666;50.920;4.628;2023-07-22T07:07:30;18.10;99.90
15131;DHT22;7666;50.920;4.628;2023-07-22T07:10:16;18.00;99.90
15131;DHT22;7666;50.920;4.628;2023-07-22T07:13:02;18.10;99.90
15131;DHT22;7666;50.920;4.628;2023-07-22T07:15:48;18.10;99.90
15131;DHT22;7666;50.920;4.628;2023-07-22T07:18:37;18.10;99.90
15131;DHT22;7666;50.920;4.628;2023-07-22T07:21:23;18.10;99.90
15131;DHT22;7666;50.920;4.628;2023-07-22T07:24:09;18.20;99.90
15131;DHT22;7666;50.920;4.628;2023-07-22T07:26:55;18.20;99.90
15131;DHT22;7666;50.920;4.628;2023-07-22T07:29:41;18.40;99.90
15131;DHT22;7666;50.920;4.628;2023-07-22T07:32:26;18.50;99.90
15131;DHT22;7666;50.920;4.628;2023-07-22T07:35:12;18.80;99.90
15131;DHT22;7666;50.920;4.628;2023-07-22T07:37:58;19.00;99.90
15131;DHT22;7666;50.920;4.628;2023-07-22T07:40:44;19.10;99.90
15131;DHT22;7666;50.920;4.628;2023-07-22T07:43:31;19.20;99.90
15131;DHT22;7666;50.920;4.628;2023-07-22T07:46:24;19.30;99.90
15131;DHT22;7666;50.920;4.628;2023-07-22T07:49:11;19.50;99.90
15131;DHT22;7666;50.920;4.628;2023-07-22T07:51:57;19.40;99.90
15131;DHT22;7666;50.920;4.628;2023-07-22T07:54:43;19.30;99.90
15131;DHT22;7666;50.920;4.628;2023-07-22T07:57:29;19.30;99.90
15131;DHT22;7666;50.920;4.628;2023-07-22T08:00:15;19.20;99.90
15131;DHT22;7666;50.920;4.628;2023-07-22T08:03:01;19.10;99.90
15131;DHT22;7666;50.920;4.628;2023-07-22T08:05:47;18.90;99.90
15131;DHT22;7666;50.920;4.628;2023-07-22T08:08:33;18.80;99.90
15131;DHT22;7666;50.920;4.628;2023-07-22T08:11:19;18.60;99.90
15131;DHT22;7666;50.920;4.628;2023-07-22T08:14:05;18.50;99.90
15131;DHT22;7666;50.920;4.628;2023-07-22T08:16:54;18.40;99.90
15131;DHT22;7666;50.920;4.628;2023-07-22T08:19:40;18.30;99.90
15131;DHT22;7666;50.920;4.628;2023-07-22T08:22:25;18.40;99.90
15131;DHT22;7666;50.920;4.628;2023-07-22T08:25:11;18.60;99.90
15131;DHT22;7666;50.920;4.628;2023-07-22T08:27:57;18.70;99.90
15131;DHT22;7666;50.920;4.628;2023-07-22T08:30:43;19.00;99.90
15131;DHT22;7666;50.920;4.628;2023-07-22T08:33:31;19.30;99.90
15131;DHT22;7666;50.920;4.628;2023-07-22T08:36:17;19.60;99.90
15131;DHT22;7666;50.920;4.628;2023-07-22T08:39:03;19.70;99.90
15131;DHT22;7666;50.920;4.628;2023-07-22T08:41:49;19.70;99.90
15131;DHT22;7666;50.920;4.628;2023-07-22T08:44:38;19.90;99.90
15131;DHT22;7666;50.920;4.628;2023-07-22T08:47:24;20.10;99.90
15131;DHT22;7666;50.920;4.628;2023-07-22T08:50:19;20.00;99.90
15131;DHT22;7666;50.920;4.628;2023-07-22T08:53:06;19.80;99.90
15131;DHT22;7666;50.920;4.628;2023-07-22T08:55:53;19.70;99.90
15131;DHT22;7666;50.920;4.628;2023-07-22T08:58:41;20.00;99.90
15131;DHT22;7666;50.920;4.628;2023-07-22T09:01:28;20.40;99.90
15131;DHT22;7666;50.920;4.628;2023-07-22T09:04:14;20.80;99.90
15131;DHT22;7666;50.920;4.628;2023-07-22T09:07:00;20.90;99.90
15131;DHT22;7666;50.920;4.628;2023-07-22T09:09:46;21.00;99.90
15131;DHT22;7666;50.920;4.628;2023-07-22T09:12:33;21.00;99.90
15131;DHT22;7666;50.920;4.628;2023-07-22T09:15:25;21.20;99.90
15131;DHT22;7666;50.920;4.628;2023-07-22T09:18:12;21.30;99.90
15131;DHT22;7666;50.920;4.628;2023-07-22T09:20:57;21.60;99.90
15131;DHT22;7666;50.920;4.628;2023-07-22T09:23:43;21.90;99.90
15131;DHT22;7666;50.920;4.628;2023-07-22T09:26:32;22.00;99.90
15131;DHT22;7666;50.920;4.628;2023-07-22T09:29:20;21.90;99.90
15131;DHT22;7666;50.920;4.628;2023-07-22T09:32:35;21.60;99.90
15131;DHT22;7666;50.920;4.628;2023-07-22T09:35:22;21.60;99.90
15131;DHT22;7666;50.920;4.628;2023-07-22T09:38:08;22.00;99.90
15131;DHT22;7666;50.920;4.628;2023-07-22T09:40:54;22.40;99.90
15131;DHT22;7666;50.920;4.628;2023-07-22T09:43:40;22.60;99.90
15131;DHT22;7666;50.920;4.628;2023-07-22T09:46:31;22.70;99.90
15131;DHT22;7666;50.920;4.628;2023-07-22T09:49:18;22.60;99.90
15131;DHT22;7666;50.920;4.628;2023-07-22T09:52:09;22.80;99.90
15131;DHT22;7666;50.920;4.628;2023-07-22T09:55:01;23.10;99.90
15131;DHT22;7666;50.920;4.628;2023-07-22T09:57:51;23.20;99.90
15131;DHT22;7666;50.920;4.628;2023-07-22T10:00:38;23.00;99.90
15131;DHT22;7666;50.920;4.628;2023-07-22T10:03:29;23.00;99.90
15131;DHT22;7666;50.920;4.628;2023-07-22T10:06:16;22.70;99.90
15131;DHT22;7666;50.920;4.628;2023-07-22T10:09:03;22.50;99.90
15131;DHT22;7666;50.920;4.628;2023-07-22T10:11:59;22.60;99.90
15131;DHT22;7666;50.920;4.628;2023-07-22T10:14:45;22.60;99.90
15131;DHT22;7666;50.920;4.628;2023-07-22T10:17:32;22.90;99.90
15131;DHT22;7666;50.920;4.628;2023-07-22T10:20:19;23.00;99.90
15131;DHT22;7666;50.920;4.628;2023-07-22T10:23:06;23.10;99.90
15131;DHT22;7666;50.920;4.628;2023-07-22T10:25:54;23.10;99.90
15131;DHT22;7666;50.920;4.628;2023-07-22T10:28:40;23.20;99.90
15131;DHT22;7666;50.920;4.628;2023-07-22T10:31:31;23.40;99.90
15131;DHT22;7666;50.920;4.628;2023-07-22T10:34:23;23.60;99.90
15131;DHT22;7666;50.920;4.628;2023-07-22T10:37:09;23.70;99.90
15131;DHT22;7666;50.920;4.628;2023-07-22T10:39:59;23.80;99.90
15131;DHT22;7666;50.920;4.628;2023-07-22T10:45:44;23.60;99.90
15131;DHT22;7666;50.920;4.628;2023-07-22T10:48:36;23.70;99.90
15131;DHT22;7666;50.920;4.628;2023-07-22T10:51:23;23.90;99.90
15131;DHT22;7666;50.920;4.628;2023-07-22T10:54:34;24.20;99.90
15131;DHT22;7666;50.920;4.628;2023-07-22T11:00:18;24.10;99.90
15131;DHT22;7666;50.920;4.628;2023-07-22T11:03:14;23.70;99.90
15131;DHT22;7666;50.920;4.628;2023-07-22T11:06:01;23.60;99.90
15131;DHT22;7666;50.920;4.628;2023-07-22T11:08:47;23.90;99.90
15131;DHT22;7666;50.920;4.628;2023-07-22T11:11:41;24.30;99.90
15131;DHT22;7666;50.920;4.628;2023-07-22T11:14:31;24.20;99.90
15131;DHT22;7666;50.920;4.628;2023-07-22T11:17:21;24.30;99.90
15131;DHT22;7666;50.920;4.628;2023-07-22T11:20:12;24.00;99.90
15131;DHT22;7666;50.920;4.628;2023-07-22T11:22:58;23.80;99.90
15131;DHT22;7666;50.920;4.628;2023-07-22T11:25:45;23.60;99.90
15131;DHT22;7666;50.920;4.628;2023-07-22T11:28:31;23.40;99.90
15131;DHT22;7666;50.920;4.628;2023-07-22T11:31:17;23.10;99.90
15131;DHT22;7666;50.920;4.628;2023-07-22T11:34:04;23.30;99.90
15131;DHT22;7666;50.920;4.628;2023-07-22T11:36:51;23.40;99.90
15131;DHT22;7666;50.920;4.628;2023-07-22T11:39:38;23.50;99.90
15131;DHT22;7666;50.920;4.628;2023-07-22T11:42:24;23.60;99.90
15131;DHT22;7666;50.920;4.628;2023-07-22T11:45:10;23.80;99.90
15131;DHT22;7666;50.920;4.628;2023-07-22T11:47:56;23.70;99.90
15131;DHT22;7666;50.920;4.628;2023-07-22T11:50:42;23.70;99.90
15131;DHT22;7666;50.920;4.628;2023-07-22T11:53:28;23.60;99.90
15131;DHT22;7666;50.920;4.628;2023-07-22T11:56:18;23.50;99.90
15131;DHT22;7666;50.920;4.628;2023-07-22T11:59:04;23.60;99.90
15131;DHT22;7666;50.920;4.628;2023-07-22T12:01:53;23.60;99.90
15131;DHT22;7666;50.920;4.628;2023-07-22T12:04:40;23.70;99.90
15131;DHT22;7666;50.920;4.628;2023-07-22T12:10:15;24.00;99.90
15131;DHT22;7666;50.920;4.628;2023-07-22T12:13:02;24.00;99.90
15131;DHT22;7666;50.920;4.628;2023-07-22T12:16:05;24.30;99.90
15131;DHT22;7666;50.920;4.628;2023-07-22T12:18:54;24.20;99.90
15131;DHT22;7666;50.920;4.628;2023-07-22T12:21:41;24.60;99.90
15131;DHT22;7666;50.920;4.628;2023-07-22T12:24:28;24.40;99.90
15131;DHT22;7666;50.920;4.628;2023-07-22T12:27:14;24.20;99.90
15131;DHT22;7666;50.920;4.628;2023-07-22T12:30:00;24.50;99.90
15131;DHT22;7666;50.920;4.628;2023-07-22T12:32:47;24.60;99.90
15131;DHT22;7666;50.920;4.628;2023-07-22T12:35:33;24.60;99.90
15131;DHT22;7666;50.920;4.628;2023-07-22T12:38:19;24.40;99.90
15131;DHT22;7666;50.920;4.628;2023-07-22T12:41:05;24.50;99.90
15131;DHT22;7666;50.920;4.628;2023-07-22T12:43:51;24.40;99.90
15131;DHT22;7666;50.920;4.628;2023-07-22T12:46:37;24.20;99.90
15131;DHT22;7666;50.920;4.628;2023-07-22T12:49:23;24.30;99.90
15131;DHT22;7666;50.920;4.628;2023-07-22T12:52:09;24.90;99.90
15131;DHT22;7666;50.920;4.628;2023-07-22T12:54:56;25.30;99.90
15131;DHT22;7666;50.920;4.628;2023-07-22T12:57:43;25.40;99.90
15131;DHT22;7666;50.920;4.628;2023-07-22T13:00:29;25.00;99.90
15131;DHT22;7666;50.920;4.628;2023-07-22T13:03:15;24.70;99.90
15131;DHT22;7666;50.920;4.628;2023-07-22T13:06:01;24.70;99.90
15131;DHT22;7666;50.920;4.628;2023-07-22T13:08:47;24.90;99.90
15131;DHT22;7666;50.920;4.628;2023-07-22T13:11:33;25.20;99.90
15131;DHT22;7666;50.920;4.628;2023-07-22T13:14:19;25.50;99.90
15131;DHT22;7666;50.920;4.628;2023-07-22T13:17:05;25.40;99.90
15131;DHT22;7666;50.920;4.628;2023-07-22T13:19:51;25.30;99.90
15131;DHT22;7666;50.920;4.628;2023-07-22T13:22:40;25.10;99.90
15131;DHT22;7666;50.920;4.628;2023-07-22T13:25:26;24.80;99.90
15131;DHT22;7666;50.920;4.628;2023-07-22T13:28:12;24.70;99.90
15131;DHT22;7666;50.920;4.628;2023-07-22T13:30:58;24.70;99.90
15131;DHT22;7666;50.920;4.628;2023-07-22T13:33:44;24.80;99.90
15131;DHT22;7666;50.920;4.628;2023-07-22T13:36:29;24.60;99.90
15131;DHT22;7666;50.920;4.628;2023-07-22T13:39:15;24.20;99.90
15131;DHT22;7666;50.920;4.628;2023-07-22T13:42:01;24.00;99.90
15131;DHT22;7666;50.920;4.628;2023-07-22T13:44:47;23.80;99.90
15131;DHT22;7666;50.920;4.628;2023-07-22T13:47:33;23.80;99.90
15131;DHT22;7666;50.920;4.628;2023-07-22T13:50:19;24.00;99.90
15131;DHT22;7666;50.920;4.628;2023-07-22T13:53:05;24.10;99.90
15131;DHT22;7666;50.920;4.628;2023-07-22T13:55:51;24.00;99.90
15131;DHT22;7666;50.920;4.628;2023-07-22T13:58:37;24.10;99.90
15131;DHT22;7666;50.920;4.628;2023-07-22T14:01:23;24.20;99.90
15131;DHT22;7666;50.920;4.628;2023-07-22T14:04:09;23.90;99.90
15131;DHT22;7666;50.920;4.628;2023-07-22T14:06:55;23.80;99.90
15131;DHT22;7666;50.920;4.628;2023-07-22T14:09:41;23.50;99.90
15131;DHT22;7666;50.920;4.628;2023-07-22T14:12:27;23.40;99.90
15131;DHT22;7666;50.920;4.628;2023-07-22T14:15:13;23.30;99.90
15131;DHT22;7666;50.920;4.628;2023-07-22T14:17:59;23.20;99.90
15131;DHT22;7666;50.920;4.628;2023-07-22T14:20:45;23.10;99.90
15131;DHT22;7666;50.920;4.628;2023-07-22T14:23:31;22.90;99.90
15131;DHT22;7666;50.920;4.628;2023-07-22T14:26:17;22.80;99.90
15131;DHT22;7666;50.920;4.628;2023-07-22T14:29:04;22.50;99.90
15131;DHT22;7666;50.920;4.628;2023-07-22T14:31:50;22.40;99.90
15131;DHT22;7666;50.920;4.628;2023-07-22T14:34:36;22.30;99.90
15131;DHT22;7666;50.920;4.628;2023-07-22T14:37:22;22.20;99.90
15131;DHT22;7666;50.920;4.628;2023-07-22T14:40:09;22.20;99.90
15131;DHT22;7666;50.920;4.628;2023-07-22T14:42:55;22.10;99.90
15131;DHT22;7666;50.920;4.628;2023-07-22T14:45:41;22.10;99.90
15131;DHT22;7666;50.920;4.628;2023-07-22T14:48:27;22.00;99.90
15131;DHT22;7666;50.920;4.628;2023-07-22T14:51:13;21.90;99.90
15131;DHT22;7666;50.920;4.628;2023-07-22T14:53:59;21.90;99.90
15131;DHT22;7666;50.920;4.628;2023-07-22T14:56:45;22.00;99.90
15131;DHT22;7666;50.920;4.628;2023-07-22T14:59:31;22.10;99.90
15131;DHT22;7666;50.920;4.628;2023-07-22T15:02:17;22.20;99.90
15131;DHT22;7666;50.920;4.628;2023-07-22T15:05:03;22.30;99.90
15131;DHT22;7666;50.920;4.628;2023-07-22T15:07:49;22.40;99.90
15131;DHT22;7666;50.920;4.628;2023-07-22T15:10:35;22.40;99.90
15131;DHT22;7666;50.920;4.628;2023-07-22T15:13:21;22.40;99.90
15131;DHT22;7666;50.920;4.628;2023-07-22T15:16:07;22.40;99.90
15131;DHT22;7666;50.920;4.628;2023-07-22T15:18:53;22.50;99.90
15131;DHT22;7666;50.920;4.628;2023-07-22T15:21:39;22.50;99.90
15131;DHT22;7666;50.920;4.628;2023-07-22T15:24:25;22.50;99.90
15131;DHT22;7666;50.920;4.628;2023-07-22T15:27:11;22.60;99.90
15131;DHT22;7666;50.920;4.628;2023-07-22T15:29:57;22.80;99.90
15131;DHT22;7666;50.920;4.628;2023-07-22T15:32:42;22.90;99.90
15131;DHT22;7666;50.920;4.628;2023-07-22T15:35:28;23.10;99.90
15131;DHT22;7666;50.920;4.628;2023-07-22T15:38:14;22.90;99.90
15131;DHT22;7666;50.920;4.628;2023-07-22T15:41:01;22.70;99.90
15131;DHT22;7666;50.920;4.628;2023-07-22T15:43:47;22.70;99.90
15131;DHT22;7666;50.920;4.628;2023-07-22T15:46:33;22.70;99.90
15131;DHT22;7666;50.920;4.628;2023-07-22T15:49:19;22.70;99.90
15131;DHT22;7666;50.920;4.628;2023-07-22T15:52:05;22.70;99.90
15131;DHT22;7666;50.920;4.628;2023-07-22T15:54:51;22.60;99.90
15131;DHT22;7666;50.920;4.628;2023-07-22T15:57:37;22.60;99.90
15131;DHT22;7666;50.920;4.628;2023-07-22T16:00:23;22.60;99.90
15131;DHT22;7666;50.920;4.628;2023-07-22T16:03:10;22.60;99.90
15131;DHT22;7666;50.920;4.628;2023-07-22T16:05:56;22.60;99.90
15131;DHT22;7666;50.920;4.628;2023-07-22T16:08:42;22.60;99.90
15131;DHT22;7666;50.920;4.628;2023-07-22T16:11:28;22.60;99.90
15131;DHT22;7666;50.920;4.628;2023-07-22T16:14:14;22.50;99.90
15131;DHT22;7666;50.920;4.628;2023-07-22T16:17:00;22.40;99.90
15131;DHT22;7666;50.920;4.628;2023-07-22T16:19:46;22.30;99.90
15131;DHT22;7666;50.920;4.628;2023-07-22T16:22:32;22.20;99.90
15131;DHT22;7666;50.920;4.628;2023-07-22T16:25:18;22.10;99.90
15131;DHT22;7666;50.920;4.628;2023-07-22T16:28:04;22.10;99.90
15131;DHT22;7666;50.920;4.628;2023-07-22T16:30:50;22.10;99.90
15131;DHT22;7666;50.920;4.628;2023-07-22T16:33:37;22.10;99.90
15131;DHT22;7666;50.920;4.628;2023-07-22T16:36:23;22.10;99.90
15131;DHT22;7666;50.920;4.628;2023-07-22T16:39:09;22.10;99.90
15131;DHT22;7666;50.920;4.628;2023-07-22T16:41:55;22.00;99.90
15131;DHT22;7666;50.920;4.628;2023-07-22T16:44:42;22.00;99.90
15131;DHT22;7666;50.920;4.628;2023-07-22T16:47:27;22.00;99.90
15131;DHT22;7666;50.920;4.628;2023-07-22T16:50:13;22.00;99.90
15131;DHT22;7666;50.920;4.628;2023-07-22T16:52:59;22.10;99.90
15131;DHT22;7666;50.920;4.628;2023-07-22T16:55:48;22.20;99.90
15131;DHT22;7666;50.920;4.628;2023-07-22T16:58:35;22.30;99.90
15131;DHT22;7666;50.920;4.628;2023-07-22T17:01:20;22.30;99.90
15131;DHT22;7666;50.920;4.628;2023-07-22T17:04:07;22.20;99.90
15131;DHT22;7666;50.920;4.628;2023-07-22T17:06:53;22.20;99.90
15131;DHT22;7666;50.920;4.628;2023-07-22T17:09:39;22.30;99.90
15131;DHT22;7666;50.920;4.628;2023-07-22T17:12:25;22.20;99.90
15131;DHT22;7666;50.920;4.628;2023-07-22T17:15:12;22.00;99.90
15131;DHT22;7666;50.920;4.628;2023-07-22T17:17:59;22.00;99.90
15131;DHT22;7666;50.920;4.628;2023-07-22T17:20:45;21.90;99.90
15131;DHT22;7666;50.920;4.628;2023-07-22T17:23:31;21.90;99.90
15131;DHT22;7666;50.920;4.628;2023-07-22T17:26:17;21.90;99.90
15131;DHT22;7666;50.920;4.628;2023-07-22T17:29:03;21.80;99.90
15131;DHT22;7666;50.920;4.628;2023-07-22T17:31:49;21.70;99.90
15131;DHT22;7666;50.920;4.628;2023-07-22T17:34:35;21.70;99.90
15131;DHT22;7666;50.920;4.628;2023-07-22T17:37:22;21.70;99.90
15131;DHT22;7666;50.920;4.628;2023-07-22T17:40:09;21.70;99.90
15131;DHT22;7666;50.920;4.628;2023-07-22T17:42:55;21.70;99.90
15131;DHT22;7666;50.920;4.628;2023-07-22T17:45:41;21.70;99.90
15131;DHT22;7666;50.920;4.628;2023-07-22T17:48:27;21.70;99.90
15131;DHT22;7666;50.920;4.628;2023-07-22T17:51:13;21.60;99.90
15131;DHT22;7666;50.920;4.628;2023-07-22T17:54:00;21.60;99.90
15131;DHT22;7666;50.920;4.628;2023-07-22T17:56:46;21.60;99.90